Terminal Aerodrome Forecast
Issued by NWS Midland/Odessa, TX

Home | Current Version | Previous Version | Text Only | Print | Product List | Glossary On
Versions: 1 2 3 4 5 6 7 8 9 10 11 12 13 14 15 16 17
000
FTUS44 KMAF 202300
TAFMAF
TAF
KMAF 202336Z 2100/2124 16010G20KT P6SM SCT080 SCT250
      TEMPO 2100/2102 VRB20G45KT 3SM TSRA BKN070CB
     FM210200 16011KT P6SM SCT200
      TEMPO 2112/2114 BKN010
     FM211500 17011G22KT P6SM SCT050=

USA.gov is the U.S. government's official web portal to all federal, state and local government web resources and services.